sensor_id;sensor_type;location;lat;lon;timestamp;temperature;humidity
17726;DHT22;8983;53.156;17.960;2023-05-07T00:00:39;7.60;99.90
17726;DHT22;8983;53.156;17.960;2023-05-07T00:03:09;7.50;99.90
17726;DHT22;8983;53.156;17.960;2023-05-07T00:05:39;7.50;99.90
17726;DHT22;8983;53.156;17.960;2023-05-07T00:08:08;7.50;99.90
17726;DHT22;8983;53.156;17.960;2023-05-07T00:10:36;7.40;99.90
17726;DHT22;8983;53.156;17.960;2023-05-07T00:13:04;7.40;99.90
17726;DHT22;8983;53.156;17.960;2023-05-07T00:15:32;7.40;99.90
17726;DHT22;8983;53.156;17.960;2023-05-07T00:18:00;7.30;99.90
17726;DHT22;8983;53.156;17.960;2023-05-07T00:20:28;7.30;99.90
17726;DHT22;8983;53.156;17.960;2023-05-07T00:22:58;7.30;99.90
17726;DHT22;8983;53.156;17.960;2023-05-07T00:25:26;7.30;99.90
17726;DHT22;8983;53.156;17.960;2023-05-07T00:27:54;7.20;99.90
17726;DHT22;8983;53.156;17.960;2023-05-07T00:30:22;7.20;99.90
17726;DHT22;8983;53.156;17.960;2023-05-07T00:32:50;7.20;99.90
17726;DHT22;8983;53.156;17.960;2023-05-07T00:35:18;7.10;99.90
17726;DHT22;8983;53.156;17.960;2023-05-07T00:37:46;7.10;99.90
17726;DHT22;8983;53.156;17.960;2023-05-07T00:40:16;7.00;99.90
17726;DHT22;8983;53.156;17.960;2023-05-07T00:42:44;7.00;99.90
17726;DHT22;8983;53.156;17.960;2023-05-07T00:45:13;6.90;99.90
17726;DHT22;8983;53.156;17.960;2023-05-07T00:47:42;6.90;99.90
17726;DHT22;8983;53.156;17.960;2023-05-07T00:50:10;6.90;99.90
17726;DHT22;8983;53.156;17.960;2023-05-07T00:52:40;6.80;99.90
17726;DHT22;8983;53.156;17.960;2023-05-07T00:55:09;6.80;99.90
17726;DHT22;8983;53.156;17.960;2023-05-07T00:57:40;6.80;99.90
17726;DHT22;8983;53.156;17.960;2023-05-07T01:00:09;6.70;99.90
17726;DHT22;8983;53.156;17.960;2023-05-07T01:02:40;6.70;99.90
17726;DHT22;8983;53.156;17.960;2023-05-07T01:05:10;6.60;99.90
17726;DHT22;8983;53.156;17.960;2023-05-07T01:07:40;6.60;99.90
17726;DHT22;8983;53.156;17.960;2023-05-07T01:10:10;6.60;99.90
17726;DHT22;8983;53.156;17.960;2023-05-07T01:12:42;6.50;99.90
17726;DHT22;8983;53.156;17.960;2023-05-07T01:15:11;6.50;99.90
17726;DHT22;8983;53.156;17.960;2023-05-07T01:17:40;6.50;99.90
17726;DHT22;8983;53.156;17.960;2023-05-07T01:20:10;6.50;99.90
17726;DHT22;8983;53.156;17.960;2023-05-07T01:22:40;6.40;99.90
17726;DHT22;8983;53.156;17.960;2023-05-07T01:25:08;6.40;99.90
17726;DHT22;8983;53.156;17.960;2023-05-07T01:27:36;6.30;99.90
17726;DHT22;8983;53.156;17.960;2023-05-07T01:30:06;6.30;99.90
17726;DHT22;8983;53.156;17.960;2023-05-07T01:35:07;6.30;99.90
17726;DHT22;8983;53.156;17.960;2023-05-07T01:37:37;6.20;99.90
17726;DHT22;8983;53.156;17.960;2023-05-07T01:40:08;6.20;99.90
17726;DHT22;8983;53.156;17.960;2023-05-07T01:42:36;6.20;99.90
17726;DHT22;8983;53.156;17.960;2023-05-07T01:45:06;6.20;99.90
17726;DHT22;8983;53.156;17.960;2023-05-07T01:47:34;6.10;99.90
17726;DHT22;8983;53.156;17.960;2023-05-07T01:50:04;6.10;99.90
17726;DHT22;8983;53.156;17.960;2023-05-07T01:52:32;6.10;99.90
17726;DHT22;8983;53.156;17.960;2023-05-07T01:55:01;6.00;99.90
17726;DHT22;8983;53.156;17.960;2023-05-07T01:57:30;6.00;99.90
17726;DHT22;8983;53.156;17.960;2023-05-07T01:59:58;6.00;99.90
17726;DHT22;8983;53.156;17.960;2023-05-07T02:02:26;5.90;99.90
17726;DHT22;8983;53.156;17.960;2023-05-07T02:04:56;5.80;99.90
17726;DHT22;8983;53.156;17.960;2023-05-07T02:07:24;5.80;99.90
17726;DHT22;8983;53.156;17.960;2023-05-07T02:09:52;5.80;99.90
17726;DHT22;8983;53.156;17.960;2023-05-07T02:12:22;5.80;99.90
17726;DHT22;8983;53.156;17.960;2023-05-07T02:14:51;5.80;99.90
17726;DHT22;8983;53.156;17.960;2023-05-07T02:17:19;5.80;99.90
17726;DHT22;8983;53.156;17.960;2023-05-07T02:19:47;5.80;99.90
17726;DHT22;8983;53.156;17.960;2023-05-07T02:22:15;5.70;99.90
17726;DHT22;8983;53.156;17.960;2023-05-07T02:24:43;5.70;99.90
17726;DHT22;8983;53.156;17.960;2023-05-07T02:27:12;5.70;99.90
17726;DHT22;8983;53.156;17.960;2023-05-07T02:29:40;5.70;99.90
17726;DHT22;8983;53.156;17.960;2023-05-07T02:32:09;5.60;99.90
17726;DHT22;8983;53.156;17.960;2023-05-07T02:34:37;5.60;99.90
17726;DHT22;8983;53.156;17.960;2023-05-07T02:37:06;5.60;99.90
17726;DHT22;8983;53.156;17.960;2023-05-07T02:39:34;5.60;99.90
17726;DHT22;8983;53.156;17.960;2023-05-07T02:42:02;5.60;99.90
17726;DHT22;8983;53.156;17.960;2023-05-07T02:44:30;5.60;99.90
17726;DHT22;8983;53.156;17.960;2023-05-07T02:46:58;5.50;99.90
17726;DHT22;8983;53.156;17.960;2023-05-07T02:49:27;5.50;99.90
17726;DHT22;8983;53.156;17.960;2023-05-07T02:51:56;5.40;99.90
17726;DHT22;8983;53.156;17.960;2023-05-07T02:54:24;5.40;99.90
17726;DHT22;8983;53.156;17.960;2023-05-07T02:56:52;5.40;99.90
17726;DHT22;8983;53.156;17.960;2023-05-07T02:59:20;5.40;99.90
17726;DHT22;8983;53.156;17.960;2023-05-07T03:01:48;5.30;99.90
17726;DHT22;8983;53.156;17.960;2023-05-07T03:04:16;5.30;99.90
17726;DHT22;8983;53.156;17.960;2023-05-07T03:06:46;5.30;99.90
17726;DHT22;8983;53.156;17.960;2023-05-07T03:09:14;5.30;99.90
17726;DHT22;8983;53.156;17.960;2023-05-07T03:11:43;5.30;99.90
17726;DHT22;8983;53.156;17.960;2023-05-07T03:14:11;5.20;99.90
17726;DHT22;8983;53.156;17.960;2023-05-07T03:16:39;5.20;99.90
17726;DHT22;8983;53.156;17.960;2023-05-07T03:19:08;5.20;99.90
17726;DHT22;8983;53.156;17.960;2023-05-07T03:21:36;5.20;99.90
17726;DHT22;8983;53.156;17.960;2023-05-07T03:24:05;5.20;99.90
17726;DHT22;8983;53.156;17.960;2023-05-07T03:26:33;5.20;99.90
17726;DHT22;8983;53.156;17.960;2023-05-07T03:29:01;5.10;99.90
17726;DHT22;8983;53.156;17.960;2023-05-07T03:31:29;5.10;99.90
17726;DHT22;8983;53.156;17.960;2023-05-07T03:33:58;5.10;99.90
17726;DHT22;8983;53.156;17.960;2023-05-07T03:36:26;5.10;99.90
17726;DHT22;8983;53.156;17.960;2023-05-07T03:38:54;5.10;99.90
17726;DHT22;8983;53.156;17.960;2023-05-07T03:41:24;5.10;99.90
17726;DHT22;8983;53.156;17.960;2023-05-07T03:43:52;5.10;99.90
17726;DHT22;8983;53.156;17.960;2023-05-07T03:46:20;5.10;99.90
17726;DHT22;8983;53.156;17.960;2023-05-07T03:48:48;5.10;99.90
17726;DHT22;8983;53.156;17.960;2023-05-07T03:51:17;5.00;99.90
17726;DHT22;8983;53.156;17.960;2023-05-07T03:53:45;5.00;99.90
17726;DHT22;8983;53.156;17.960;2023-05-07T03:56:13;5.00;99.90
17726;DHT22;8983;53.156;17.960;2023-05-07T03:58:44;5.00;99.90
17726;DHT22;8983;53.156;17.960;2023-05-07T04:01:13;5.00;99.90
17726;DHT22;8983;53.156;17.960;2023-05-07T04:03:41;5.00;99.90
17726;DHT22;8983;53.156;17.960;2023-05-07T04:06:09;5.10;99.90
17726;DHT22;8983;53.156;17.960;2023-05-07T04:08:37;5.10;99.90
17726;DHT22;8983;53.156;17.960;2023-05-07T04:11:05;5.10;99.90
17726;DHT22;8983;53.156;17.960;2023-05-07T04:13:33;5.10;99.90
17726;DHT22;8983;53.156;17.960;2023-05-07T04:16:03;5.10;99.90
17726;DHT22;8983;53.156;17.960;2023-05-07T04:18:32;5.10;99.90
17726;DHT22;8983;53.156;17.960;2023-05-07T04:21:00;5.20;99.90
17726;DHT22;8983;53.156;17.960;2023-05-07T04:23:28;5.20;99.90
17726;DHT22;8983;53.156;17.960;2023-05-07T04:25:56;5.20;99.90
17726;DHT22;8983;53.156;17.960;2023-05-07T04:28:24;5.30;99.90
17726;DHT22;8983;53.156;17.960;2023-05-07T04:30:52;5.30;99.90
17726;DHT22;8983;53.156;17.960;2023-05-07T04:33:21;5.30;99.90
17726;DHT22;8983;53.156;17.960;2023-05-07T04:35:49;5.30;99.90
17726;DHT22;8983;53.156;17.960;2023-05-07T04:38:18;5.40;99.90
17726;DHT22;8983;53.156;17.960;2023-05-07T04:40:46;5.40;99.90
17726;DHT22;8983;53.156;17.960;2023-05-07T04:43:14;5.40;99.90
17726;DHT22;8983;53.156;17.960;2023-05-07T04:45:42;5.40;99.90
17726;DHT22;8983;53.156;17.960;2023-05-07T04:48:10;5.50;99.90
17726;DHT22;8983;53.156;17.960;2023-05-07T04:50:42;5.50;99.90
17726;DHT22;8983;53.156;17.960;2023-05-07T04:53:10;5.50;99.90
17726;DHT22;8983;53.156;17.960;2023-05-07T04:55:38;5.60;99.90
17726;DHT22;8983;53.156;17.960;2023-05-07T04:58:07;5.60;99.90
17726;DHT22;8983;53.156;17.960;2023-05-07T05:00:35;5.60;99.90
17726;DHT22;8983;53.156;17.960;2023-05-07T05:03:03;5.70;99.90
17726;DHT22;8983;53.156;17.960;2023-05-07T05:05:32;5.70;99.90
17726;DHT22;8983;53.156;17.960;2023-05-07T05:08:01;5.70;99.90
17726;DHT22;8983;53.156;17.960;2023-05-07T05:10:29;5.80;99.90
17726;DHT22;8983;53.156;17.960;2023-05-07T05:12:57;5.80;99.90
17726;DHT22;8983;53.156;17.960;2023-05-07T05:15:25;5.80;99.90
17726;DHT22;8983;53.156;17.960;2023-05-07T05:17:53;6.00;99.90
17726;DHT22;8983;53.156;17.960;2023-05-07T05:20:21;5.90;99.90
17726;DHT22;8983;53.156;17.960;2023-05-07T05:22:49;6.00;99.90
17726;DHT22;8983;53.156;17.960;2023-05-07T05:25:19;6.00;99.90
17726;DHT22;8983;53.156;17.960;2023-05-07T05:27:47;6.00;99.90
17726;DHT22;8983;53.156;17.960;2023-05-07T05:30:15;6.10;99.90
17726;DHT22;8983;53.156;17.960;2023-05-07T05:32:43;6.10;99.90
17726;DHT22;8983;53.156;17.960;2023-05-07T05:35:11;6.20;99.90
17726;DHT22;8983;53.156;17.960;2023-05-07T05:37:39;6.20;99.90
17726;DHT22;8983;53.156;17.960;2023-05-07T05:40:08;6.30;99.90
17726;DHT22;8983;53.156;17.960;2023-05-07T05:42:38;6.30;99.90
17726;DHT22;8983;53.156;17.960;2023-05-07T05:45:07;6.40;99.90
17726;DHT22;8983;53.156;17.960;2023-05-07T05:47:35;6.40;99.90
17726;DHT22;8983;53.156;17.960;2023-05-07T05:50:05;6.50;99.90
17726;DHT22;8983;53.156;17.960;2023-05-07T05:52:33;6.50;99.90
17726;DHT22;8983;53.156;17.960;2023-05-07T05:55:01;6.60;99.90
17726;DHT22;8983;53.156;17.960;2023-05-07T05:57:29;6.60;99.90
17726;DHT22;8983;53.156;17.960;2023-05-07T05:59:59;6.70;99.90
17726;DHT22;8983;53.156;17.960;2023-05-07T06:02:27;6.70;99.90
17726;DHT22;8983;53.156;17.960;2023-05-07T06:04:55;6.70;99.90
17726;DHT22;8983;53.156;17.960;2023-05-07T06:07:23;6.80;99.90
17726;DHT22;8983;53.156;17.960;2023-05-07T06:09:51;6.80;99.90
17726;DHT22;8983;53.156;17.960;2023-05-07T06:12:20;6.90;99.90
17726;DHT22;8983;53.156;17.960;2023-05-07T06:14:48;6.90;99.90
17726;DHT22;8983;53.156;17.960;2023-05-07T06:17:18;7.00;99.90
17726;DHT22;8983;53.156;17.960;2023-05-07T06:19:47;7.00;99.90
17726;DHT22;8983;53.156;17.960;2023-05-07T06:22:15;7.00;99.90
17726;DHT22;8983;53.156;17.960;2023-05-07T06:24:43;7.10;99.90
17726;DHT22;8983;53.156;17.960;2023-05-07T06:27:11;7.10;99.90
17726;DHT22;8983;53.156;17.960;2023-05-07T06:29:39;7.20;99.90
17726;DHT22;8983;53.156;17.960;2023-05-07T06:32:08;7.20;99.90
17726;DHT22;8983;53.156;17.960;2023-05-07T06:34:38;7.30;99.90
17726;DHT22;8983;53.156;17.960;2023-05-07T06:37:07;7.30;99.90
17726;DHT22;8983;53.156;17.960;2023-05-07T06:39:35;7.30;99.90
17726;DHT22;8983;53.156;17.960;2023-05-07T06:42:03;7.30;99.90
17726;DHT22;8983;53.156;17.960;2023-05-07T06:44:31;7.40;99.90
17726;DHT22;8983;53.156;17.960;2023-05-07T06:46:59;7.50;99.90
17726;DHT22;8983;53.156;17.960;2023-05-07T06:49:28;7.50;99.90
17726;DHT22;8983;53.156;17.960;2023-05-07T06:51:57;7.50;99.90
17726;DHT22;8983;53.156;17.960;2023-05-07T06:54:25;7.50;99.90
17726;DHT22;8983;53.156;17.960;2023-05-07T06:56:53;7.60;99.90
17726;DHT22;8983;53.156;17.960;2023-05-07T06:59:21;7.60;99.90
17726;DHT22;8983;53.156;17.960;2023-05-07T07:01:49;7.70;99.90
17726;DHT22;8983;53.156;17.960;2023-05-07T07:04:18;7.70;99.90
17726;DHT22;8983;53.156;17.960;2023-05-07T07:06:46;7.80;99.90
17726;DHT22;8983;53.156;17.960;2023-05-07T07:09:15;7.80;99.90
17726;DHT22;8983;53.156;17.960;2023-05-07T07:11:43;7.90;99.90
17726;DHT22;8983;53.156;17.960;2023-05-07T07:14:11;7.90;99.90
17726;DHT22;8983;53.156;17.960;2023-05-07T07:16:39;7.90;99.90
17726;DHT22;8983;53.156;17.960;2023-05-07T07:19:08;8.00;99.90
17726;DHT22;8983;53.156;17.960;2023-05-07T07:21:36;8.00;99.90
17726;DHT22;8983;53.156;17.960;2023-05-07T07:24:04;8.10;99.90
17726;DHT22;8983;53.156;17.960;2023-05-07T07:26:34;8.10;99.90
17726;DHT22;8983;53.156;17.960;2023-05-07T07:29:02;8.30;99.90
17726;DHT22;8983;53.156;17.960;2023-05-07T07:31:30;8.20;99.90
17726;DHT22;8983;53.156;17.960;2023-05-07T07:33:58;8.30;99.90
17726;DHT22;8983;53.156;17.960;2023-05-07T07:36:26;8.30;99.90
17726;DHT22;8983;53.156;17.960;2023-05-07T07:39:08;8.40;99.90
17726;DHT22;8983;53.156;17.960;2023-05-07T07:41:37;8.40;99.90
17726;DHT22;8983;53.156;17.960;2023-05-07T07:44:06;8.50;99.90
17726;DHT22;8983;53.156;17.960;2023-05-07T07:46:35;8.60;99.90
17726;DHT22;8983;53.156;17.960;2023-05-07T07:49:03;8.60;99.90
17726;DHT22;8983;53.156;17.960;2023-05-07T07:51:31;8.60;99.90
17726;DHT22;8983;53.156;17.960;2023-05-07T07:53:59;8.70;99.90
17726;DHT22;8983;53.156;17.960;2023-05-07T07:56:29;8.80;99.90
17726;DHT22;8983;53.156;17.960;2023-05-07T07:58:58;8.80;99.90
17726;DHT22;8983;53.156;17.960;2023-05-07T08:01:27;8.80;99.90
17726;DHT22;8983;53.156;17.960;2023-05-07T08:03:56;8.90;99.90
17726;DHT22;8983;53.156;17.960;2023-05-07T08:06:25;9.00;99.90
17726;DHT22;8983;53.156;17.960;2023-05-07T08:08:53;9.00;99.90
17726;DHT22;8983;53.156;17.960;2023-05-07T08:11:21;9.00;99.90
17726;DHT22;8983;53.156;17.960;2023-05-07T08:13:50;9.10;99.90
17726;DHT22;8983;53.156;17.960;2023-05-07T08:16:19;9.20;99.90
17726;DHT22;8983;53.156;17.960;2023-05-07T08:18:49;9.20;99.90
17726;DHT22;8983;53.156;17.960;2023-05-07T08:21:17;9.30;99.90
17726;DHT22;8983;53.156;17.960;2023-05-07T08:23:47;9.30;99.90
17726;DHT22;8983;53.156;17.960;2023-05-07T08:26:15;9.40;99.90
17726;DHT22;8983;53.156;17.960;2023-05-07T08:28:43;9.40;99.90
17726;DHT22;8983;53.156;17.960;2023-05-07T08:31:11;9.50;99.90
17726;DHT22;8983;53.156;17.960;2023-05-07T08:33:41;9.50;99.90
17726;DHT22;8983;53.156;17.960;2023-05-07T08:36:09;9.50;99.90
17726;DHT22;8983;53.156;17.960;2023-05-07T08:38:37;9.60;99.90
17726;DHT22;8983;53.156;17.960;2023-05-07T08:41:10;9.60;99.90
17726;DHT22;8983;53.156;17.960;2023-05-07T08:43:38;9.60;99.90
17726;DHT22;8983;53.156;17.960;2023-05-07T08:46:09;9.70;99.90
17726;DHT22;8983;53.156;17.960;2023-05-07T08:48:38;9.80;99.90
17726;DHT22;8983;53.156;17.960;2023-05-07T08:51:11;9.80;99.90
17726;DHT22;8983;53.156;17.960;2023-05-07T08:53:40;9.90;99.90
17726;DHT22;8983;53.156;17.960;2023-05-07T08:56:09;9.80;99.90
17726;DHT22;8983;53.156;17.960;2023-05-07T08:58:37;10.00;99.90
17726;DHT22;8983;53.156;17.960;2023-05-07T09:01:08;10.10;99.90
17726;DHT22;8983;53.156;17.960;2023-05-07T09:03:37;10.10;99.90
17726;DHT22;8983;53.156;17.960;2023-05-07T09:06:07;10.10;99.90
17726;DHT22;8983;53.156;17.960;2023-05-07T09:08:35;10.10;99.90
17726;DHT22;8983;53.156;17.960;2023-05-07T09:11:03;10.30;99.90
17726;DHT22;8983;53.156;17.960;2023-05-07T09:13:32;10.40;99.90
17726;DHT22;8983;53.156;17.960;2023-05-07T09:16:09;10.40;99.90
17726;DHT22;8983;53.156;17.960;2023-05-07T09:18:41;10.50;99.90
17726;DHT22;8983;53.156;17.960;2023-05-07T09:21:15;10.60;99.90
17726;DHT22;8983;53.156;17.960;2023-05-07T09:23:43;10.70;99.90
17726;DHT22;8983;53.156;17.960;2023-05-07T09:26:11;10.80;99.90
17726;DHT22;8983;53.156;17.960;2023-05-07T09:28:40;10.80;99.90
17726;DHT22;8983;53.156;17.960;2023-05-07T09:31:09;10.90;99.90
17726;DHT22;8983;53.156;17.960;2023-05-07T09:33:38;11.00;99.90
17726;DHT22;8983;53.156;17.960;2023-05-07T09:36:07;11.10;99.90
17726;DHT22;8983;53.156;17.960;2023-05-07T09:38:38;11.20;99.90
17726;DHT22;8983;53.156;17.960;2023-05-07T09:41:07;11.30;99.90
17726;DHT22;8983;53.156;17.960;2023-05-07T09:43:37;11.40;99.90
17726;DHT22;8983;53.156;17.960;2023-05-07T09:46:07;11.40;99.90
17726;DHT22;8983;53.156;17.960;2023-05-07T09:48:37;11.50;99.90
17726;DHT22;8983;53.156;17.960;2023-05-07T09:51:21;11.50;99.90
17726;DHT22;8983;53.156;17.960;2023-05-07T09:53:56;11.50;99.90
17726;DHT22;8983;53.156;17.960;2023-05-07T09:56:26;11.50;99.90
17726;DHT22;8983;53.156;17.960;2023-05-07T09:58:57;11.60;99.90
17726;DHT22;8983;53.156;17.960;2023-05-07T10:01:27;11.60;99.90
17726;DHT22;8983;53.156;17.960;2023-05-07T10:03:56;11.70;99.90
17726;DHT22;8983;53.156;17.960;2023-05-07T10:06:25;11.70;99.90
17726;DHT22;8983;53.156;17.960;2023-05-07T10:08:55;11.70;99.90
17726;DHT22;8983;53.156;17.960;2023-05-07T10:11:23;11.80;99.90
17726;DHT22;8983;53.156;17.960;2023-05-07T10:13:52;11.90;99.90
17726;DHT22;8983;53.156;17.960;2023-05-07T10:16:21;11.90;99.90
17726;DHT22;8983;53.156;17.960;2023-05-07T10:18:50;11.90;99.90
17726;DHT22;8983;53.156;17.960;2023-05-07T10:21:20;12.00;99.90
17726;DHT22;8983;53.156;17.960;2023-05-07T10:23:50;12.10;99.90
17726;DHT22;8983;53.156;17.960;2023-05-07T10:26:20;12.20;99.90
17726;DHT22;8983;53.156;17.960;2023-05-07T10:28:54;12.40;99.90
17726;DHT22;8983;53.156;17.960;2023-05-07T10:31:36;12.50;99.90
17726;DHT22;8983;53.156;17.960;2023-05-07T10:34:08;12.60;99.90
17726;DHT22;8983;53.156;17.960;2023-05-07T10:36:38;12.60;99.90
17726;DHT22;8983;53.156;17.960;2023-05-07T10:39:07;12.70;99.90
17726;DHT22;8983;53.156;17.960;2023-05-07T10:41:36;12.70;99.90
17726;DHT22;8983;53.156;17.960;2023-05-07T10:44:04;12.80;99.90
17726;DHT22;8983;53.156;17.960;2023-05-07T10:46:32;12.90;99.90
17726;DHT22;8983;53.156;17.960;2023-05-07T10:49:09;13.00;99.90
17726;DHT22;8983;53.156;17.960;2023-05-07T10:51:38;13.20;99.90
17726;DHT22;8983;53.156;17.960;2023-05-07T10:54:19;13.30;99.90
17726;DHT22;8983;53.156;17.960;2023-05-07T10:56:49;13.70;99.90
17726;DHT22;8983;53.156;17.960;2023-05-07T10:59:37;14.10;99.90
17726;DHT22;8983;53.156;17.960;2023-05-07T11:02:10;14.60;99.90
17726;DHT22;8983;53.156;17.960;2023-05-07T11:04:41;14.90;99.90
17726;DHT22;8983;53.156;17.960;2023-05-07T11:07:27;15.00;99.90
17726;DHT22;8983;53.156;17.960;2023-05-07T11:10:00;15.10;99.90
17726;DHT22;8983;53.156;17.960;2023-05-07T11:12:54;15.00;99.90
17726;DHT22;8983;53.156;17.960;2023-05-07T11:15:49;15.30;99.90
17726;DHT22;8983;53.156;17.960;2023-05-07T11:18:18;15.80;99.90
17726;DHT22;8983;53.156;17.960;2023-05-07T11:20:51;16.10;99.20
17726;DHT22;8983;53.156;17.960;2023-05-07T11:23:56;16.10;98.40
17726;DHT22;8983;53.156;17.960;2023-05-07T11:26:29;16.10;97.40
17726;DHT22;8983;53.156;17.960;2023-05-07T11:29:00;16.30;97.40
17726;DHT22;8983;53.156;17.960;2023-05-07T11:31:28;16.80;96.90
17726;DHT22;8983;53.156;17.960;2023-05-07T11:33:57;17.10;95.80
17726;DHT22;8983;53.156;17.960;2023-05-07T11:36:31;17.10;94.60
17726;DHT22;8983;53.156;17.960;2023-05-07T11:38:59;16.80;93.90
17726;DHT22;8983;53.156;17.960;2023-05-07T11:41:34;16.60;93.50
17726;DHT22;8983;53.156;17.960;2023-05-07T11:44:04;16.60;93.40
17726;DHT22;8983;53.156;17.960;2023-05-07T11:46:34;16.40;93.10
17726;DHT22;8983;53.156;17.960;2023-05-07T11:49:02;16.30;92.80
17726;DHT22;8983;53.156;17.960;2023-05-07T11:51:30;15.90;92.40
17726;DHT22;8983;53.156;17.960;2023-05-07T11:53:58;16.20;92.60
17726;DHT22;8983;53.156;17.960;2023-05-07T11:56:26;16.70;92.30
17726;DHT22;8983;53.156;17.960;2023-05-07T11:58:54;17.30;91.10
17726;DHT22;8983;53.156;17.960;2023-05-07T12:01:24;17.50;89.60
17726;DHT22;8983;53.156;17.960;2023-05-07T12:03:53;17.40;87.80
17726;DHT22;8983;53.156;17.960;2023-05-07T12:06:25;17.20;87.60
17726;DHT22;8983;53.156;17.960;2023-05-07T12:08:54;17.10;88.20
17726;DHT22;8983;53.156;17.960;2023-05-07T12:11:25;17.20;88.70
17726;DHT22;8983;53.156;17.960;2023-05-07T12:13:55;17.60;87.80
17726;DHT22;8983;53.156;17.960;2023-05-07T12:16:29;17.80;86.00
17726;DHT22;8983;53.156;17.960;2023-05-07T12:18:59;17.80;84.70
17726;DHT22;8983;53.156;17.960;2023-05-07T12:21:27;17.60;84.00
17726;DHT22;8983;53.156;17.960;2023-05-07T12:23:56;17.60;84.40
17726;DHT22;8983;53.156;17.960;2023-05-07T12:26:25;17.90;84.20
17726;DHT22;8983;53.156;17.960;2023-05-07T12:28:53;18.20;83.10
17726;DHT22;8983;53.156;17.960;2023-05-07T12:31:22;18.60;82.00
17726;DHT22;8983;53.156;17.960;2023-05-07T12:33:52;19.00;80.40
17726;DHT22;8983;53.156;17.960;2023-05-07T12:36:22;19.40;78.90
17726;DHT22;8983;53.156;17.960;2023-05-07T12:38:54;19.60;75.70
17726;DHT22;8983;53.156;17.960;2023-05-07T12:41:22;19.80;74.40
17726;DHT22;8983;53.156;17.960;2023-05-07T12:43:56;20.10;73.30
17726;DHT22;8983;53.156;17.960;2023-05-07T12:46:24;20.40;72.00
17726;DHT22;8983;53.156;17.960;2023-05-07T12:48:54;20.70;70.00
17726;DHT22;8983;53.156;17.960;2023-05-07T12:51:22;20.80;68.80
17726;DHT22;8983;53.156;17.960;2023-05-07T12:53:50;21.10;68.30
17726;DHT22;8983;53.156;17.960;2023-05-07T12:56:23;21.50;67.70
17726;DHT22;8983;53.156;17.960;2023-05-07T12:58:51;21.80;67.00
17726;DHT22;8983;53.156;17.960;2023-05-07T13:01:29;21.70;65.80
17726;DHT22;8983;53.156;17.960;2023-05-07T13:04:03;21.70;65.10
17726;DHT22;8983;53.156;17.960;2023-05-07T13:06:32;21.50;64.50
17726;DHT22;8983;53.156;17.960;2023-05-07T13:09:00;21.60;63.80
17726;DHT22;8983;53.156;17.960;2023-05-07T13:11:28;21.70;63.10
17726;DHT22;8983;53.156;17.960;2023-05-07T13:13:56;22.20;63.10
17726;DHT22;8983;53.156;17.960;2023-05-07T13:16:25;22.70;62.10
17726;DHT22;8983;53.156;17.960;2023-05-07T13:18:53;22.70;60.80
17726;DHT22;8983;53.156;17.960;2023-05-07T13:21:22;22.50;60.10
17726;DHT22;8983;53.156;17.960;2023-05-07T13:23:51;22.20;60.10
17726;DHT22;8983;53.156;17.960;2023-05-07T13:26:22;22.10;60.20
17726;DHT22;8983;53.156;17.960;2023-05-07T13:28:53;22.50;59.90
17726;DHT22;8983;53.156;17.960;2023-05-07T13:31:21;23.10;59.30
17726;DHT22;8983;53.156;17.960;2023-05-07T13:33:49;23.70;58.00
17726;DHT22;8983;53.156;17.960;2023-05-07T13:36:23;23.80;55.80
17726;DHT22;8983;53.156;17.960;2023-05-07T13:38:51;23.80;54.70
17726;DHT22;8983;53.156;17.960;2023-05-07T13:41:19;23.60;54.20
17726;DHT22;8983;53.156;17.960;2023-05-07T13:43:50;23.70;53.90
17726;DHT22;8983;53.156;17.960;2023-05-07T13:46:18;23.80;53.10
17726;DHT22;8983;53.156;17.960;2023-05-07T13:48:46;23.80;52.60
17726;DHT22;8983;53.156;17.960;2023-05-07T13:51:14;23.70;51.90
17726;DHT22;8983;53.156;17.960;2023-05-07T13:53:45;23.60;51.30
17726;DHT22;8983;53.156;17.960;2023-05-07T13:56:13;23.70;51.40
17726;DHT22;8983;53.156;17.960;2023-05-07T13:58:41;24.20;51.30
17726;DHT22;8983;53.156;17.960;2023-05-07T14:01:25;24.70;50.80
17726;DHT22;8983;53.156;17.960;2023-05-07T14:03:53;25.30;50.50
17726;DHT22;8983;53.156;17.960;2023-05-07T14:06:21;25.60;50.20
17726;DHT22;8983;53.156;17.960;2023-05-07T14:08:51;26.00;49.60
17726;DHT22;8983;53.156;17.960;2023-05-07T14:11:19;26.00;48.10
17726;DHT22;8983;53.156;17.960;2023-05-07T14:13:47;26.00;47.90
17726;DHT22;8983;53.156;17.960;2023-05-07T14:16:15;26.10;47.20
17726;DHT22;8983;53.156;17.960;2023-05-07T14:18:44;26.20;47.10
17726;DHT22;8983;53.156;17.960;2023-05-07T14:21:12;26.30;46.70
17726;DHT22;8983;53.156;17.960;2023-05-07T14:23:40;26.40;46.70
17726;DHT22;8983;53.156;17.960;2023-05-07T14:26:10;26.30;46.60
17726;DHT22;8983;53.156;17.960;2023-05-07T14:28:38;26.30;46.60
17726;DHT22;8983;53.156;17.960;2023-05-07T14:31:06;26.30;46.90
17726;DHT22;8983;53.156;17.960;2023-05-07T14:33:34;26.30;47.00
17726;DHT22;8983;53.156;17.960;2023-05-07T14:36:04;26.30;47.10
17726;DHT22;8983;53.156;17.960;2023-05-07T14:38:34;26.50;47.00
17726;DHT22;8983;53.156;17.960;2023-05-07T14:41:02;26.80;46.80
17726;DHT22;8983;53.156;17.960;2023-05-07T14:43:31;27.00;46.50
17726;DHT22;8983;53.156;17.960;2023-05-07T14:46:00;27.00;46.10
17726;DHT22;8983;53.156;17.960;2023-05-07T14:48:28;26.90;45.80
17726;DHT22;8983;53.156;17.960;2023-05-07T14:50:57;26.70;45.50
17726;DHT22;8983;53.156;17.960;2023-05-07T14:53:25;26.40;45.50
17726;DHT22;8983;53.156;17.960;2023-05-07T14:55:54;25.80;45.30
17726;DHT22;8983;53.156;17.960;2023-05-07T14:58:22;25.30;45.40
17726;DHT22;8983;53.156;17.960;2023-05-07T15:00:52;24.90;45.60
17726;DHT22;8983;53.156;17.960;2023-05-07T15:03:20;24.70;46.00
17726;DHT22;8983;53.156;17.960;2023-05-07T15:05:49;24.90;46.30
17726;DHT22;8983;53.156;17.960;2023-05-07T15:08:18;25.10;46.40
17726;DHT22;8983;53.156;17.960;2023-05-07T15:10:47;25.30;46.10
17726;DHT22;8983;53.156;17.960;2023-05-07T15:13:15;25.60;45.80
17726;DHT22;8983;53.156;17.960;2023-05-07T15:15:44;25.80;45.50
17726;DHT22;8983;53.156;17.960;2023-05-07T15:18:14;26.00;45.10
17726;DHT22;8983;53.156;17.960;2023-05-07T15:20:43;26.00;44.70
17726;DHT22;8983;53.156;17.960;2023-05-07T15:23:11;25.90;44.60
17726;DHT22;8983;53.156;17.960;2023-05-07T15:25:41;25.70;44.60
17726;DHT22;8983;53.156;17.960;2023-05-07T15:28:09;25.70;44.80
17726;DHT22;8983;53.156;17.960;2023-05-07T15:30:38;25.80;44.40
17726;DHT22;8983;53.156;17.960;2023-05-07T15:33:09;26.00;44.40
17726;DHT22;8983;53.156;17.960;2023-05-07T16:07:07;27.30;42.90
17726;DHT22;8983;53.156;17.960;2023-05-07T16:18:06;27.20;42.60
17726;DHT22;8983;53.156;17.960;2023-05-07T17:17:02;24.60;43.10
17726;DHT22;8983;53.156;17.960;2023-05-07T17:27:07;24.30;43.50
17726;DHT22;8983;53.156;17.960;2023-05-07T17:29:36;24.10;43.80
17726;DHT22;8983;53.156;17.960;2023-05-07T17:32:06;24.00;44.00
17726;DHT22;8983;53.156;17.960;2023-05-07T17:34:35;23.80;44.10
17726;DHT22;8983;53.156;17.960;2023-05-07T17:37:03;23.70;44.30
17726;DHT22;8983;53.156;17.960;2023-05-07T17:39:32;23.60;44.60